Time;durP1;ratioP1;P1;durP2;ratioP2;P2;SDS_P1;SDS_P2;PMS_P1;PMS_P2;Temp;Humidity;BMP_temperature;BMP_pressure;BME280_temperature;BME280_humidity;BME280_pressure;Samples;Min_cycle;Max_cycle;Signal;HPM_P1;HPM_P2
2022/10/20 00:04:30;;;;;;;;;;;;;;;;;;;;;
2022/10/20 00:32:04;;;;;;;;;;;;;;;;;;;;;
2022/10/20 01:43:52;;;;;;;;;;;;;;;;;;;;;
2022/10/20 02:44:07;;;;;;;;;;;;;;;;;;;;;
2022/10/20 03:12:16;;;;;;;;;;;;;;;;;;;;;
2022/10/20 06:59:39;;;;;;;;;8.25;5.75;;;;;18.53;80.55;100655.78;5168691;23;45857;-78
2022/10/20 07:02:05;;;;;;;;;6.25;6.25;;;;;18.53;80.92;100672.00;4827924;29;45654;-81
2022/10/20 07:04:30;;;;;;;;;5.50;4.50;;;;;18.50;80.63;100673.06;4831385;29;45602;-81
2022/10/20 07:06:56;;;;;;;;;5.50;4.00;;;;;18.55;80.44;100685.41;4832472;29;45507;-81
2022/10/20 07:09:21;;;;;;;;;5.75;4.50;;;;;18.49;80.34;100682.16;4831629;29;45426;-81
2022/10/20 07:11:51;;;;;;;;;3.50;3.50;;;;;18.54;80.22;100694.47;4847913;29;45787;-81
2022/10/20 07:14:17;;;;;;;;;5.75;4.75;;;;;18.59;80.70;100700.44;4837899;29;45212;-81
2022/10/20 07:16:42;;;;;;;;;4.75;3.75;;;;;18.52;80.29;100700.84;4850226;29;47143;-80
2022/10/20 07:19:07;;;;;;;;;8.25;6.00;;;;;18.58;80.39;100709.53;4835114;29;45947;-80
2022/10/20 07:21:35;;;;;;;;;6.00;6.00;;;;;18.55;80.08;100707.91;4846964;29;45623;-80
2022/10/20 07:24:02;;;;;;;;;6.25;5.00;;;;;18.58;80.13;100717.66;4833855;29;45345;-80
2022/10/20 07:26:33;;;;;;;;;6.00;5.00;;;;;18.49;80.41;100708.28;4845189;29;46741;-80
2022/10/20 07:29:00;;;;;;;;;4.75;4.75;;;;;18.53;80.28;100723.34;4837126;29;45387;-79
2022/10/20 07:31:48;;;;;;;;;5.75;5.00;;;;;18.44;80.27;100713.13;4848461;29;45570;-80
2022/10/20 07:34:15;;;;;;;;;6.00;6.00;;;;;18.47;80.03;100719.19;4847048;29;47251;-79
2022/10/20 07:36:43;;;;;;;;;6.50;6.50;;;;;18.46;80.30;100725.59;4826680;29;47071;-80
2022/10/20 07:39:10;;;;;;;;;8.00;4.00;;;;;18.44;80.07;100721.25;4836215;29;45578;-80
2022/10/20 07:41:38;;;;;;;;;6.50;4.50;;;;;18.30;80.35;100703.25;4838127;29;45542;-80
2022/10/20 07:44:03;;;;;;;;;8.50;8.50;;;;;18.41;80.11;100726.84;4825798;29;45607;-80
2022/10/20 07:46:29;;;;;;;;;8.75;6.75;;;;;18.35;79.95;100719.16;4830190;29;46280;-77
2022/10/20 07:48:54;;;;;;;;;4.75;4.00;;;;;18.38;81.04;100722.53;4829694;29;45469;-77
2022/10/20 07:51:27;;;;;;;;;7.00;7.00;;;;;18.39;80.37;100724.25;4827455;29;45649;-77
2022/10/20 07:53:55;;;;;;;;;8.25;6.75;;;;;18.37;80.55;100725.31;4828802;29;45479;-77
2022/10/20 07:56:20;;;;;;;;;5.75;5.25;;;;;18.32;80.84;100720.22;4834966;29;48229;-79
2022/10/20 07:58:47;;;;;;;;;9.50;6.50;;;;;18.31;80.83;100708.56;4828628;29;45354;-79
2022/10/20 08:01:13;;;;;;;;;5.50;5.00;;;;;18.38;80.54;100724.38;4828671;29;45330;-78
2022/10/20 08:03:38;;;;;;;;;5.75;4.75;;;;;18.37;80.72;100722.63;4836767;29;45381;-78
2022/10/20 08:06:04;;;;;;;;;6.00;4.50;;;;;18.29;80.46;100712.31;4828187;29;45358;-77
2022/10/20 08:08:30;;;;;;;;;6.50;5.50;;;;;18.29;80.64;100715.00;4839373;29;45670;-78
2022/10/20 08:10:57;;;;;;;;;8.00;7.50;;;;;18.33;80.64;100720.13;4831825;29;45466;-78
2022/10/20 08:13:23;;;;;;;;;6.75;6.25;;;;;18.36;80.79;100719.06;4829528;29;45832;-78
2022/10/20 08:15:48;;;;;;;;;6.75;5.00;;;;;18.35;81.22;100711.06;4825632;29;46242;-78
2022/10/20 08:18:14;;;;;;;;;4.75;4.75;;;;;18.37;81.06;100715.38;4828481;29;45385;-78
2022/10/20 08:20:39;;;;;;;;;8.25;5.75;;;;;18.37;81.13;100701.00;4835435;29;45327;-77
2022/10/20 08:23:04;;;;;;;;;6.00;5.50;;;;;18.32;81.46;100699.47;4834695;29;45508;-77
2022/10/20 08:25:30;;;;;;;;;5.00;5.00;;;;;18.37;80.95;100709.97;4825096;29;46825;-77
2022/10/20 08:27:55;;;;;;;;;4.25;4.25;;;;;18.36;81.00;100712.78;4827004;29;45337;-77
2022/10/20 08:30:20;;;;;;;;;4.00;4.00;;;;;18.31;80.96;100718.50;4828311;29;45518;-77
2022/10/20 08:32:50;;;;;;;;;4.75;4.25;;;;;18.33;81.16;100728.22;4827178;29;45244;-77
2022/10/20 08:35:15;;;;;;;;;4.00;4.00;;;;;18.38;81.41;100727.06;4847054;29;45476;-77
2022/10/20 08:37:40;;;;;;;;;5.00;3.50;;;;;18.40;80.94;100720.59;4831760;29;45614;-77
2022/10/20 08:40:06;;;;;;;;;5.25;4.00;;;;;18.38;80.77;100716.25;4828469;29;45403;-77
2022/10/20 08:42:40;;;;;;;;;4.75;3.00;;;;;18.42;80.78;100724.03;4829570;29;45394;-77
2022/10/20 08:45:06;;;;;;;;;3.75;3.75;;;;;18.40;81.19;100728.69;4827716;29;46227;-77
2022/10/20 08:47:36;;;;;;;;;3.75;3.25;;;;;18.45;81.54;100733.81;4828678;29;45310;-77
2022/10/20 08:50:05;;;;;;;;;4.25;3.25;;;;;18.45;81.03;100742.75;4827309;29;45409;-77
2022/10/20 08:52:31;;;;;;;;;6.25;5.75;;;;;18.47;81.59;100743.53;4827180;29;45834;-77
2022/10/20 08:54:57;;;;;;;;;5.75;3.00;;;;;18.43;81.09;100723.09;4827369;29;48246;-77
2022/10/20 08:57:28;;;;;;;;;4.25;4.25;;;;;18.50;81.27;100732.53;4829372;29;45523;-77
2022/10/20 09:00:00;;;;;;;;;4.25;4.00;;;;;18.51;80.92;100728.88;4827583;29;45252;-77
2022/10/20 09:02:28;;;;;;;;;5.25;3.75;;;;;18.54;81.07;100726.91;4827796;29;45469;-79
2022/10/20 09:04:58;;;;;;;;;5.75;3.50;;;;;18.55;81.52;100732.22;4828197;29;45271;-79
2022/10/20 09:07:29;;;;;;;;;4.00;4.00;;;;;18.50;81.09;100723.56;4839696;29;45399;-79
2022/10/20 09:10:12;;;;;;;;;4.25;4.25;;;;;18.59;81.89;100735.59;4827126;29;45232;-79
2022/10/20 09:12:41;;;;;;;;;6.75;5.75;;;;;18.61;81.65;100744.47;4830960;29;45293;-79
2022/10/20 09:15:10;;;;;;;;;1.75;1.00;;;;;18.67;81.60;100741.34;4829440;29;46130;-77
2022/10/20 09:17:35;;;;;;;;;5.00;3.75;;;;;18.68;81.52;100741.25;4827924;29;45384;-78
2022/10/20 09:20:03;;;;;;;;;4.25;3.50;;;;;18.69;81.29;100734.91;4826182;29;45693;-79
2022/10/20 09:22:30;;;;;;;;;5.25;3.00;;;;;18.70;81.47;100742.00;4815410;29;45293;-78
2022/10/20 09:24:57;;;;;;;;;3.25;3.25;;;;;18.77;81.50;100726.25;4825050;29;48144;-78
2022/10/20 09:27:23;;;;;;;;;3.75;2.50;;;;;18.73;81.61;100718.44;4827522;29;45419;-78
2022/10/20 09:29:49;;;;;;;;;6.00;4.00;;;;;18.78;81.84;100717.19;4817031;29;45436;-78
2022/10/20 09:32:34;;;;;;;;;5.00;3.50;;;;;18.88;81.84;100723.72;4830779;29;45696;-78
2022/10/20 09:35:22;;;;;;;;;4.00;3.00;;;;;18.93;81.82;100723.41;4831493;29;45429;-79
2022/10/20 09:37:58;;;;;;;;;2.00;2.00;;;;;18.98;81.41;100718.56;4817786;29;45483;-78
2022/10/20 09:40:25;;;;;;;;;3.00;3.00;;;;;18.97;81.29;100708.72;4825517;29;45797;-78
2022/10/20 09:42:58;;;;;;;;;3.00;2.00;;;;;19.05;80.87;100719.00;4833236;29;45389;-78
2022/10/20 09:45:29;;;;;;;;;3.25;2.75;;;;;19.00;80.45;100696.81;4826426;29;45353;-78
2022/10/20 09:48:01;;;;;;;;;3.00;1.75;;;;;19.05;79.88;100706.34;4829835;29;45578;-79
2022/10/20 09:50:36;;;;;;;;;3.50;3.50;;;;;19.14;79.96;100718.38;4831770;29;45740;-79
2022/10/20 09:53:05;;;;;;;;;3.50;3.50;;;;;19.15;79.86;100719.25;4834226;29;45735;-78
2022/10/20 09:55:40;;;;;;;;;3.00;2.00;;;;;19.20;79.86;100730.63;4828316;29;45554;-79
2022/10/20 09:58:14;;;;;;;;;2.00;2.00;;;;;19.18;79.77;100709.09;4834350;29;45301;-78
2022/10/20 10:00:53;;;;;;;;;3.50;2.00;;;;;19.22;79.42;100717.84;4827439;29;45463;-78
2022/10/20 10:03:20;;;;;;;;;2.00;2.00;;;;;19.30;78.91;100728.16;4833095;29;45370;-78
2022/10/20 10:05:48;;;;;;;;;2.50;2.50;;;;;19.23;78.75;100712.34;4839628;29;47953;-79
2022/10/20 10:08:14;;;;;;;;;3.00;3.00;;;;;19.27;78.90;100707.56;4828959;29;45590;-78
2022/10/20 10:10:40;;;;;;;;;2.75;2.75;;;;;19.37;78.92;100713.22;4825121;29;45386;-79
2022/10/20 10:13:21;;;;;;;;;3.50;2.00;;;;;19.37;79.01;100705.94;4833584;29;45355;-78
2022/10/20 10:15:46;;;;;;;;;5.75;3.00;;;;;19.47;78.96;100710.72;4827787;29;47417;-78
2022/10/20 10:18:21;;;;;;;;;3.50;2.75;;;;;19.51;78.39;100726.66;4830572;29;46423;-78
2022/10/20 10:20:55;;;;;;;;;3.25;2.50;;;;;19.50;77.84;100710.53;4830728;29;45654;-78
2022/10/20 10:23:26;;;;;;;;;1.50;1.50;;;;;19.57;78.07;100712.66;4826886;29;45723;-78
2022/10/20 10:25:52;;;;;;;;;3.00;3.00;;;;;19.51;77.92;100690.59;4826350;29;46125;-78
2022/10/20 10:28:35;;;;;;;;;1.00;1.00;;;;;19.61;77.51;100702.47;4826602;29;45479;-79
2022/10/20 10:31:15;;;;;;;;;2.75;2.00;;;;;19.61;77.58;100692.53;4824640;29;45598;-78
2022/10/20 10:33:41;;;;;;;;;4.00;3.75;;;;;19.62;77.20;100702.38;4833268;29;45864;-78
2022/10/20 10:36:16;;;;;;;;;3.00;1.75;;;;;19.59;76.55;100691.75;4835121;29;48119;-78
2022/10/20 10:38:41;;;;;;;;;2.00;2.00;;;;;19.58;76.44;100681.06;4826533;29;45403;-78
2022/10/20 10:41:28;;;;;;;;;3.00;3.00;;;;;19.68;76.88;100687.56;4827182;29;46141;-78
2022/10/20 10:44:13;;;;;;;;;3.00;3.00;;;;;19.67;76.85;100677.69;4834672;29;45633;-78
2022/10/20 10:46:53;;;;;;;;;2.00;2.00;;;;;19.74;76.59;100688.94;4838019;29;45371;-79
2022/10/20 10:49:37;;;;;;;;;1.50;0.00;;;;;19.76;75.74;100684.31;4814282;29;45454;-78
2022/10/20 10:52:28;;;;;;;;;3.00;1.75;;;;;19.79;75.77;100671.41;4825424;29;45503;-78
2022/10/20 10:55:05;;;;;;;;;2.00;2.00;;;;;19.80;75.13;100672.31;4827337;29;45458;-78
2022/10/20 10:57:53;;;;;;;;;1.00;1.00;;;;;19.83;74.73;100669.38;4850770;29;48210;-78
2022/10/20 11:00:27;;;;;;;;;1.25;1.00;;;;;19.86;74.58;100658.28;4823948;29;45785;-78
2022/10/20 11:03:07;;;;;;;;;1.75;1.75;;;;;19.91;74.01;100663.38;4826635;29;45592;-78
2022/10/20 11:05:55;;;;;;;;;0.00;0.00;;;;;19.94;74.06;100663.16;4826784;29;45332;-78
2022/10/20 11:08:27;;;;;;;;;1.00;1.00;;;;;19.93;74.39;100656.88;4824087;29;48470;-78
2022/10/20 11:11:16;;;;;;;;;1.75;0.75;;;;;20.02;73.87;100651.78;4825569;29;45401;-78
2022/10/20 11:14:15;;;;;;;;;1.00;1.00;;;;;20.02;74.01;100647.22;4832500;29;45307;-78
2022/10/20 11:16:53;;;;;;;;;3.00;1.00;;;;;20.03;73.77;100639.94;4826559;29;45328;-78
2022/10/20 11:19:34;;;;;;;;;0.75;0.50;;;;;20.16;73.41;100648.88;4826632;29;45283;-79
2022/10/20 11:22:21;;;;;;;;;1.25;1.00;;;;;20.18;72.86;100636.97;4826564;29;45579;-79
2022/10/20 11:25:00;;;;;;;;;0.00;0.00;;;;;20.21;72.43;100640.44;4827495;29;45454;-79
2022/10/20 11:27:32;;;;;;;;;1.00;1.00;;;;;20.21;71.80;100635.84;4825767;29;45369;-78
2022/10/20 11:30:07;;;;;;;;;1.25;1.00;;;;;20.23;71.50;100630.31;4825525;29;46223;-78
2022/10/20 11:33:01;;;;;;;;;0.00;0.00;;;;;20.17;71.51;100626.25;4825379;29;45287;-78
2022/10/20 11:35:37;;;;;;;;;0.00;0.00;;;;;20.24;71.67;100632.94;4837741;29;45890;-78
2022/10/20 11:38:17;;;;;;;;;1.00;0.00;;;;;20.25;72.05;100623.81;4828692;29;45471;-78
2022/10/20 11:40:51;;;;;;;;;1.75;1.75;;;;;20.24;71.87;100618.53;4827731;29;46109;-83
2022/10/20 11:43:28;;;;;;;;;1.00;1.00;;;;;20.28;71.39;100607.34;4828816;29;46268;-78
2022/10/20 11:46:03;;;;;;;;;1.50;0.25;;;;;20.24;71.39;100588.72;4829788;29;45297;-78
2022/10/20 11:48:35;;;;;;;;;1.00;1.00;;;;;20.35;71.70;100607.75;4826121;29;45335;-79
2022/10/20 11:51:29;;;;;;;;;0.00;0.00;;;;;20.38;70.93;100596.66;4828453;29;45324;-78
2022/10/20 11:54:32;;;;;;;;;0.00;0.00;;;;;20.45;71.29;100589.78;4828744;29;45319;-79
2022/10/20 11:57:22;;;;;;;;;0.00;0.00;;;;;20.40;71.81;100582.97;4823134;29;45519;-79
2022/10/20 12:00:16;;;;;;;;;0.50;0.00;;;;;20.53;71.03;100581.06;4819034;29;45227;-79
2022/10/20 12:03:12;;;;;;;;;0.75;0.75;;;;;20.56;71.99;100578.09;4822601;29;45442;-79
2022/10/20 12:06:06;;;;;;;;;1.25;0.25;;;;;20.60;71.07;100581.44;4822861;29;45475;-78
2022/10/20 12:08:53;;;;;;;;;1.00;1.00;;;;;20.64;71.15;100578.41;4828540;29;45662;-78
2022/10/20 12:11:49;;;;;;;;;1.50;1.00;;;;;20.67;71.46;100564.63;4836613;29;45473;-78
2022/10/20 12:14:20;;;;;;;;;1.00;1.00;;;;;20.71;71.21;100562.53;4832850;29;45874;-78
2022/10/20 12:16:52;;;;;;;;;1.00;1.00;;;;;20.74;71.30;100562.28;4825524;29;45909;-78
2022/10/20 12:19:20;;;;;;;;;1.00;1.00;;;;;20.71;70.77;100546.25;4832804;29;45969;-78
2022/10/20 12:22:04;;;;;;;;;1.75;1.75;;;;;20.79;70.69;100553.81;4829845;29;45528;-78
2022/10/20 12:24:32;;;;;;;;;3.00;1.50;;;;;20.82;70.73;100553.56;4826256;29;45428;-78
2022/10/20 12:27:15;;;;;;;;;3.25;2.00;;;;;20.82;71.05;100531.88;4826148;29;45630;-78
2022/10/20 12:29:40;;;;;;;;;1.00;1.00;;;;;20.86;70.31;100546.91;4840128;29;45759;-78
2022/10/20 12:32:24;;;;;;;;;0.75;0.75;;;;;20.81;70.27;100524.69;4849031;29;45699;-78
2022/10/20 12:34:52;;;;;;;;;3.00;1.50;;;;;20.82;70.08;100526.44;4830912;29;47304;-78
2022/10/20 12:37:25;;;;;;;;;2.75;1.00;;;;;20.88;70.56;100539.50;4831368;29;45579;-78
2022/10/20 12:39:54;;;;;;;;;1.00;1.00;;;;;20.88;69.55;100534.97;4828798;29;45779;-78
2022/10/20 12:42:28;;;;;;;;;1.00;1.00;;;;;20.88;70.45;100534.97;4832421;29;45834;-78
2022/10/20 12:44:59;;;;;;;;;1.00;1.00;;;;;20.90;70.01;100526.69;4823456;29;45505;-78
2022/10/20 12:47:27;;;;;;;;;2.00;0.75;;;;;20.93;70.02;100523.72;4835250;29;45494;-78
2022/10/20 12:50:01;;;;;;;;;2.00;2.00;;;;;20.88;69.48;100517.78;4835655;29;45626;-78
2022/10/20 12:52:31;;;;;;;;;2.25;2.00;;;;;20.96;70.08;100520.75;4825741;29;45687;-78
2022/10/20 12:55:17;;;;;;;;;2.25;0.50;;;;;20.96;69.62;100517.19;4826757;29;46615;-78
2022/10/20 12:57:44;;;;;;;;;1.00;0.00;;;;;21.01;68.94;100518.56;4834292;29;45552;-78
2022/10/20 13:00:15;;;;;;;;;3.00;1.25;;;;;;;;4821807;29;45431;-78
2022/10/20 13:02:54;;;;;;;;;1.00;1.00;;;;;21.08;69.27;100518.91;4827401;29;45467;-78
2022/10/20 13:05:45;;;;;;;;;0.50;0.50;;;;;21.11;69.19;100510.53;4824114;29;48479;-78
2022/10/20 13:08:19;;;;;;;;;0.25;0.25;;;;;21.16;68.49;100504.75;4827007;29;45421;-79
2022/10/20 13:10:46;;;;;;;;;1.00;1.00;;;;;21.18;68.44;100503.63;4822837;29;45419;-79
2022/10/20 13:13:11;;;;;;;;;0.50;0.50;;;;;21.20;67.58;100504.38;4829607;29;45807;-79
2022/10/20 13:15:42;;;;;;;;;0.00;0.00;;;;;21.23;67.53;100497.81;4827633;29;46406;-79
2022/10/20 13:18:10;;;;;;;;;1.00;1.00;;;;;21.24;67.20;100489.56;4827152;29;45786;-79
2022/10/20 13:20:38;;;;;;;;;1.00;1.00;;;;;21.24;66.60;100489.56;4836249;29;45522;-80
2022/10/20 13:23:08;;;;;;;;;1.00;1.00;;;;;21.26;66.90;100484.84;4826840;29;45753;-79
2022/10/20 13:25:43;;;;;;;;;0.25;0.25;;;;;21.28;66.76;100485.63;4827020;29;45382;-79
2022/10/20 13:28:11;;;;;;;;;1.25;1.25;;;;;21.32;66.61;100483.50;4825143;29;45422;-80
2022/10/20 13:30:47;;;;;;;;;5.00;5.00;;;;;21.33;66.40;100473.50;4826560;29;45391;-79
2022/10/20 13:33:23;;;;;;;;;1.00;1.00;;;;;21.34;66.47;100467.97;4822830;29;45705;-80
2022/10/20 13:35:56;;;;;;;;;0.25;0.25;;;;;21.35;66.42;100460.66;4837442;29;45589;-80
2022/10/20 13:38:38;;;;;;;;;0.75;0.75;;;;;21.34;65.84;100465.25;4829227;29;45857;-80
2022/10/20 13:41:17;;;;;;;;;1.00;1.00;;;;;21.38;66.36;100460.41;4826615;29;45385;-80
2022/10/20 13:43:51;;;;;;;;;3.75;1.00;;;;;21.40;66.75;100463.88;4823280;29;45629;-80
2022/10/20 13:46:40;;;;;;;;;1.25;1.00;;;;;21.39;65.99;100456.72;4826964;29;45350;-80
2022/10/20 13:49:19;;;;;;;;;1.00;1.00;;;;;21.42;65.87;100456.47;4830074;29;45452;-80
2022/10/20 13:51:57;;;;;;;;;1.00;1.00;;;;;21.43;66.12;100461.78;4828490;29;45279;-80
2022/10/20 13:54:26;;;;;;;;;1.75;1.75;;;;;21.41;65.92;100462.88;4820929;29;45496;-80
2022/10/20 13:56:53;;;;;;;;;1.75;1.00;;;;;21.49;66.10;100463.16;4831783;29;45907;-80
2022/10/20 13:59:25;;;;;;;;;1.00;1.00;;;;;21.47;66.19;100457.00;4829517;29;45453;-80
2022/10/20 14:01:55;;;;;;;;;1.00;1.00;;;;;21.53;65.58;100459.19;4837507;29;45625;-80
2022/10/20 14:04:34;;;;;;;;;1.00;1.00;;;;;21.55;66.06;100459.94;4832761;29;45422;-80
2022/10/20 14:07:12;;;;;;;;;1.00;0.00;;;;;21.54;66.05;100451.91;4818844;29;45713;-81
2022/10/20 14:09:38;;;;;;;;;2.50;2.25;;;;;21.53;65.67;100445.59;4837482;29;45636;-80
2022/10/20 14:12:13;;;;;;;;;2.00;2.00;;;;;21.57;65.70;100444.38;4825321;29;45475;-80
2022/10/20 14:14:43;;;;;;;;;1.50;1.50;;;;;21.60;65.54;100445.94;4823676;29;45369;-80
2022/10/20 14:17:18;;;;;;;;;2.00;1.00;;;;;21.64;65.92;100444.72;4825017;29;45416;-79
2022/10/20 14:19:43;;;;;;;;;2.75;0.50;;;;;21.55;65.92;100427.34;4825283;29;45584;-81
2022/10/20 14:22:14;;;;;;;;;0.50;0.50;;;;;21.60;65.78;100433.25;4825258;29;45360;-81
2022/10/20 14:24:46;;;;;;;;;3.25;2.00;;;;;21.63;65.77;100434.84;4826855;29;45538;-81
2022/10/20 14:27:21;;;;;;;;;1.00;1.00;;;;;21.67;65.51;100446.28;4826022;29;47697;-81
2022/10/20 14:29:47;;;;;;;;;1.50;0.00;;;;;21.65;64.94;100433.72;4826604;29;45321;-80
2022/10/20 14:32:39;;;;;;;;;2.00;2.00;;;;;21.62;65.34;100431.25;4825815;29;45445;-81
2022/10/20 14:35:17;;;;;;;;;2.00;1.00;;;;;21.69;65.63;100433.47;4825552;29;45365;-80
2022/10/20 14:38:05;;;;;;;;;2.00;1.00;;;;;21.68;65.43;100435.31;4840505;29;47427;-80
2022/10/20 14:40:36;;;;;;;;;1.00;1.00;;;;;21.67;65.45;100417.31;4826874;29;45560;-80
2022/10/20 14:43:18;;;;;;;;;0.00;0.00;;;;;21.58;65.18;100396.34;4826493;29;45539;-80
2022/10/20 14:45:56;;;;;;;;;1.75;1.75;;;;;21.67;65.24;100409.16;4827053;29;45386;-80
2022/10/20 14:48:27;;;;;;;;;3.25;1.75;;;;;21.67;65.22;100401.00;4824976;29;46060;-80
2022/10/20 14:50:53;;;;;;;;;1.00;1.00;;;;;21.62;65.12;100386.97;4825645;29;45361;-81
2022/10/20 14:53:21;;;;;;;;;2.00;2.00;;;;;21.67;64.91;100391.97;4828206;29;45498;-81
2022/10/20 14:55:47;;;;;;;;;2.00;1.00;;;;;21.64;65.26;100385.81;4826971;29;45339;-81
2022/10/20 14:58:32;;;;;;;;;2.00;2.00;;;;;21.69;65.53;100390.00;4829603;29;46159;-80
2022/10/20 15:01:26;;;;;;;;;1.25;1.00;;;;;21.69;65.44;100381.88;4826887;29;45301;-80
2022/10/20 15:04:05;;;;;;;;;1.50;1.50;;;;;21.69;66.05;100380.00;4825933;29;45261;-80
2022/10/20 15:06:30;;;;;;;;;2.00;2.00;;;;;21.70;66.43;100376.31;4830103;29;45423;-80
2022/10/20 15:08:56;;;;;;;;;2.00;2.00;;;;;21.67;65.83;100372.97;4829903;29;46000;-81
2022/10/20 15:11:24;;;;;;;;;1.00;1.00;;;;;21.70;65.90;100380.84;4829975;29;45422;-81
2022/10/20 15:13:52;;;;;;;;;1.50;1.50;;;;;21.70;66.00;100376.31;4832870;29;45355;-81
2022/10/20 15:16:41;;;;;;;;;1.50;1.50;;;;;21.67;66.15;100359.38;4829391;29;45472;-81
2022/10/20 15:19:28;;;;;;;;;3.75;1.50;;;;;21.70;66.17;100362.72;4847491;29;48368;-80
2022/10/20 15:22:07;;;;;;;;;3.25;2.75;;;;;21.66;66.77;100353.09;4824745;29;45615;-80
2022/10/20 15:24:33;;;;;;;;;3.75;2.00;;;;;21.70;66.31;100343.72;4829243;29;45266;-80
2022/10/20 15:26:59;;;;;;;;;2.00;2.00;;;;;21.73;66.61;100334.41;4830913;29;45388;-81
2022/10/20 15:29:26;;;;;;;;;3.00;2.00;;;;;21.68;66.50;100331.25;4827140;29;47023;-80
2022/10/20 15:31:52;;;;;;;;;2.00;2.00;;;;;21.73;67.06;100346.13;4836058;29;45654;-80
2022/10/20 15:34:18;;;;;;;;;2.00;2.00;;;;;21.74;66.39;100339.72;4828444;29;45478;-81
2022/10/20 15:36:43;;;;;;;;;2.50;2.25;;;;;21.71;66.71;100344.56;4826222;29;45415;-80
2022/10/20 15:39:09;;;;;;;;;2.25;2.00;;;;;21.74;67.04;100355.16;4838607;29;46944;-80
2022/10/20 15:41:35;;;;;;;;;2.50;2.00;;;;;21.75;66.79;100356.88;4841287;29;45433;-80
2022/10/20 15:44:18;;;;;;;;;3.25;2.25;;;;;21.68;67.15;100332.09;4834303;29;45392;-81
2022/10/20 15:46:44;;;;;;;;;3.00;3.00;;;;;21.73;66.87;100346.13;4834233;29;45508;-81
2022/10/20 15:49:10;;;;;;;;;3.00;3.00;;;;;21.74;67.34;100347.88;4826923;29;45671;-80
2022/10/20 15:51:38;;;;;;;;;3.50;2.75;;;;;21.75;67.08;100359.59;4842343;29;45208;-80
2022/10/20 15:54:05;;;;;;;;;3.00;2.75;;;;;21.70;67.39;100362.72;4830192;29;45404;-80
2022/10/20 15:56:31;;;;;;;;;2.50;1.00;;;;;21.71;67.69;100366.28;4843406;29;45567;-80
2022/10/20 15:58:57;;;;;;;;;3.00;3.00;;;;;21.67;67.75;100360.25;4831250;29;45466;-80
2022/10/20 16:01:22;;;;;;;;;4.00;4.00;;;;;21.66;67.95;100355.81;4818780;29;45394;-81
2022/10/20 16:03:48;;;;;;;;;2.75;2.75;;;;;21.73;67.78;100364.28;4828440;29;45431;-81
2022/10/20 16:06:15;;;;;;;;;3.50;3.00;;;;;21.69;67.92;100360.13;4824920;29;46262;-81
2022/10/20 16:08:47;;;;;;;;;5.75;4.00;;;;;21.71;68.06;100361.72;4828788;29;45434;-80
2022/10/20 16:11:13;;;;;;;;;4.00;3.00;;;;;21.65;67.86;100360.38;4826580;29;46081;-80
2022/10/20 16:13:39;;;;;;;;;4.00;3.50;;;;;21.67;67.68;100371.13;4828898;29;45399;-80
2022/10/20 16:16:06;;;;;;;;;2.00;2.00;;;;;21.64;67.68;100374.09;4828490;29;45378;-81
2022/10/20 16:18:32;;;;;;;;;3.00;3.00;;;;;21.69;67.60;100376.44;4826142;29;46490;-80
2022/10/20 16:20:58;;;;;;;;;4.25;4.00;;;;;21.68;68.33;100385.56;4827813;29;45490;-80
2022/10/20 16:23:23;;;;;;;;;3.00;3.00;;;;;21.62;68.42;100374.22;4826398;29;45569;-80
2022/10/20 16:25:49;;;;;;;;;2.50;2.50;;;;;21.61;67.77;100375.22;4828474;29;45295;-80
2022/10/20 16:28:14;;;;;;;;;3.75;3.00;;;;;21.66;68.12;100385.69;4826083;29;46149;-81
2022/10/20 16:30:40;;;;;;;;;4.25;4.25;;;;;21.65;68.20;100383.94;4834536;29;45372;-81
2022/10/20 16:33:05;;;;;;;;;3.50;3.50;;;;;21.65;68.06;100384.84;4827646;29;45713;-81
2022/10/20 16:35:30;;;;;;;;;6.25;5.00;;;;;21.64;68.38;100395.81;4846634;29;45835;-80
2022/10/20 16:37:56;;;;;;;;;4.75;4.50;;;;;21.65;68.41;100401.13;4838331;29;45386;-80
2022/10/20 16:40:21;;;;;;;;;6.25;5.50;;;;;21.63;68.95;100403.13;4840381;29;45282;-80
2022/10/20 16:42:46;;;;;;;;;9.50;6.75;;;;;21.61;68.53;100415.09;4840046;29;45313;-80
2022/10/20 16:45:12;;;;;;;;;7.25;6.25;;;;;21.61;69.21;100415.09;4856094;29;45652;-80
2022/10/20 16:47:37;;;;;;;;;6.75;6.00;;;;;21.56;69.43;100392.91;4841577;29;46100;-80
2022/10/20 16:50:03;;;;;;;;;6.50;6.50;;;;;21.58;70.84;100416.19;4842959;29;45451;-80
2022/10/20 16:52:29;;;;;;;;;5.25;4.75;;;;;21.53;70.45;100396.72;4829310;29;45530;-80
2022/10/20 16:54:54;;;;;;;;;3.50;3.50;;;;;21.52;71.25;100397.72;4837197;29;45324;-80
2022/10/20 16:57:19;;;;;;;;;5.75;4.25;;;;;21.52;72.12;100399.56;4861032;29;48357;-80
2022/10/20 16:59:48;;;;;;;;;3.25;3.25;;;;;21.52;71.78;100405.88;4835424;29;45268;-80
2022/10/20 17:02:15;;;;;;;;;5.50;5.50;;;;;21.46;72.47;100396.34;4841992;29;45351;-80
2022/10/20 17:04:41;;;;;;;;;6.50;5.25;;;;;21.42;72.75;100410.31;4851655;29;45561;-80
2022/10/20 17:07:07;;;;;;;;;2.75;2.00;;;;;21.31;72.07;100391.34;4829355;29;45566;-80
2022/10/20 17:09:33;;;;;;;;;5.00;4.25;;;;;21.25;72.47;100384.53;4835206;29;45461;-80
2022/10/20 17:11:59;;;;;;;;;2.25;2.25;;;;;21.29;72.49;100405.88;4847005;29;45514;-80
2022/10/20 17:14:24;;;;;;;;;5.00;5.00;;;;;21.19;72.54;100399.50;4836492;29;45617;-80
2022/10/20 17:16:50;;;;;;;;;3.50;3.50;;;;;21.10;73.10;100375.84;4839340;29;48479;-80
2022/10/20 17:19:15;;;;;;;;;7.00;4.00;;;;;21.12;72.99;100354.00;4838999;29;45449;-80
2022/10/20 17:21:40;;;;;;;;;6.25;4.50;;;;;21.07;73.25;100303.69;4846858;29;45492;-80
2022/10/20 17:24:10;;;;;;;;;6.25;4.00;;;;;21.03;73.52;100302.25;4832433;29;46578;-80
2022/10/20 17:26:35;;;;;;;;;7.25;5.25;;;;;20.95;73.56;100317.41;4841671;29;47506;-80
2022/10/20 17:29:01;;;;;;;;;4.25;3.25;;;;;20.87;73.97;100337.03;4843385;29;45487;-80
2022/10/20 17:31:28;;;;;;;;;4.25;3.00;;;;;20.90;73.86;100366.63;4832917;29;45346;-80
2022/10/20 17:33:55;;;;;;;;;3.50;3.00;;;;;20.81;73.51;100379.06;4825907;29;45431;-80
2022/10/20 17:36:24;;;;;;;;;4.00;4.00;;;;;20.84;72.95;100399.69;4830617;29;45380;-80
2022/10/20 17:38:53;;;;;;;;;2.25;2.25;;;;;20.79;73.22;100407.34;4827765;29;45488;-80
2022/10/20 17:41:18;;;;;;;;;3.75;3.75;;;;;20.59;72.96;100374.50;4832684;29;45489;-80
2022/10/20 17:43:44;;;;;;;;;3.25;3.00;;;;;20.64;72.89;100393.16;4834444;29;45462;-80
2022/10/20 17:46:14;;;;;;;;;3.00;3.00;;;;;20.59;73.10;100374.50;4828240;29;45235;-80
2022/10/20 17:48:40;;;;;;;;;2.00;2.00;;;;;20.55;73.93;100378.47;4831255;29;45252;-80
2022/10/20 17:51:13;;;;;;;;;5.75;3.00;;;;;20.52;73.65;100365.16;4827958;29;45342;-80
2022/10/20 17:53:42;;;;;;;;;3.00;3.00;;;;;20.48;73.52;100377.19;4825532;29;45336;-80
2022/10/20 17:56:14;;;;;;;;;4.75;4.00;;;;;20.43;74.22;100409.25;4822207;29;46063;-79
2022/10/20 17:58:41;;;;;;;;;3.00;3.00;;;;;20.44;74.24;100424.53;4825473;29;45412;-80
2022/10/20 18:01:10;;;;;;;;;3.50;2.00;;;;;20.40;74.18;100429.34;4826536;29;45430;-80
2022/10/20 18:03:36;;;;;;;;;4.00;4.00;;;;;20.30;74.51;100431.91;4825843;29;45376;-80
2022/10/20 18:06:10;;;;;;;;;5.00;3.50;;;;;20.34;74.51;100449.63;4826518;29;46292;-79
2022/10/20 18:08:35;;;;;;;;;4.25;4.00;;;;;20.32;74.25;100421.78;4825901;29;45602;-79
2022/10/20 18:11:00;;;;;;;;;5.00;3.75;;;;;20.32;74.85;100404.69;4839920;29;45328;-79
2022/10/20 18:13:26;;;;;;;;;5.75;4.75;;;;;20.29;75.04;100385.94;4828136;29;45357;-79
2022/10/20 18:15:51;;;;;;;;;4.75;3.50;;;;;20.24;74.89;100382.75;4831772;29;46657;-79
2022/10/20 18:18:16;;;;;;;;;6.75;3.25;;;;;20.20;75.01;100355.03;4842636;29;45278;-79
2022/10/20 18:20:41;;;;;;;;;5.00;4.00;;;;;20.07;75.10;100349.69;4825944;29;45247;-79
2022/10/20 18:23:07;;;;;;;;;5.00;5.00;;;;;20.11;75.20;100362.03;4822634;29;45514;-79
2022/10/20 18:25:34;;;;;;;;;4.00;4.00;;;;;20.07;74.94;100348.84;4823418;29;45539;-80
2022/10/20 18:27:59;;;;;;;;;4.00;4.00;;;;;20.04;74.75;100339.09;4829404;29;45994;-79
2022/10/20 18:30:25;;;;;;;;;4.25;4.00;;;;;20.10;74.92;100357.59;4826591;29;45349;-80
2022/10/20 18:32:50;;;;;;;;;5.00;5.00;;;;;20.11;75.37;100358.44;4821157;29;45437;-79
2022/10/20 18:35:15;;;;;;;;;6.00;5.50;;;;;20.02;75.07;100351.06;4840064;29;47459;-79
2022/10/20 18:37:42;;;;;;;;;7.25;7.25;;;;;20.08;75.03;100367.69;4837337;29;45547;-79